Time;durP1;ratioP1;P1;durP2;ratioP2;P2;SDS_P1;SDS_P2;PMS_P1;PMS_P2;Temp;Humidity;BMP_temperature;BMP_pressure;BME280_temperature;BME280_humidity;BME280_pressure;Samples;Min_cycle;Max_cycle;Signal;HPM_P1;HPM_P2
2021/12/14 00:01:38;;;;;;;;;;;;;;;7.66;100.00;102669.28;5035698;28;19920;-76
2021/12/14 00:04:07;;;;;;;;;;;;;;;7.66;100.00;102686.69;5035124;28;19978;-77
2021/12/14 00:06:32;;;;;;;;;;;;;;;7.68;100.00;102675.53;5053365;28;19924;-76
2021/12/14 00:09:00;;;;;;;;;;;;;;;7.64;100.00;102680.44;5037801;28;19916;-77
2021/12/14 00:11:46;;;;;;;;;;;;;;;7.64;100.00;102690.91;5038732;28;19917;-77
2021/12/14 00:16:46;;;;;;;;;;;;;;;7.63;100.00;102700.50;5038384;28;20306;-76
2021/12/14 00:19:11;;;;;;;;;;;;;;;7.63;100.00;102708.38;5038598;28;20016;-76
2021/12/14 00:21:37;;;;;;;;;;;;;;;7.67;100.00;102712.13;5037747;28;20007;-76
2021/12/14 00:24:06;;;;;;;;;;;;;;;7.64;100.00;102707.56;5038125;28;20349;-76
2021/12/14 00:26:31;;;;;;;;;;;;;;;7.64;100.00;102706.66;5038381;28;19952;-76
2021/12/14 00:29:03;;;;;;;;;;;;;;;7.61;100.00;102698.53;5038147;28;20476;-79
2021/12/14 00:31:28;;;;;;;;;;;;;;;7.64;100.00;102701.41;5021488;28;19963;-76
2021/12/14 00:33:55;;;;;;;;;;;;;;;7.61;100.00;102711.66;5037820;28;19951;-77
2021/12/14 00:36:22;;;;;;;;;;;;;;;7.57;100.00;102715.75;5037927;28;19917;-75
2021/12/14 00:38:49;;;;;;;;;;;;;;;7.58;100.00;102714.94;5037831;28;19923;-78
2021/12/14 00:41:17;;;;;;;;;;;;;;;7.54;100.00;102711.19;5038406;28;20424;-75
2021/12/14 00:43:43;;;;;;;;;;;;;;;7.58;100.00;102714.94;5037670;28;20355;-77
2021/12/14 00:46:08;;;;;;;;;;;;;;;7.58;100.00;102693.06;5038034;28;19921;-76
2021/12/14 00:48:34;;;;;;;;;;;;;;;7.56;100.00;102682.47;5023476;28;19945;-77
2021/12/14 00:51:00;;;;;;;;;;;;;;;7.60;100.00;102686.22;5017942;28;19983;-77
2021/12/14 00:53:26;;;;;;;;;;;;;;;7.55;100.00;102688.47;5017935;28;19917;-76
2021/12/14 00:55:53;;;;;;;;;;;;;;;7.53;100.00;102696.22;5018156;28;19966;-76
2021/12/14 00:58:19;;;;;;;;;;;;;;;7.53;100.00;102677.88;5017585;28;19917;-76
2021/12/14 01:00:47;;;;;;;;;;;;;;;7.53;100.00;102683.13;5017382;28;19921;-76
2021/12/14 01:03:13;;;;;;;;;;;;;;;7.52;100.00;102680.41;5017795;28;20028;-76
2021/12/14 01:05:40;;;;;;;;;;;;;;;7.50;100.00;102677.69;5017948;28;20004;-75
2021/12/14 01:08:10;;;;;;;;;;;;;;;7.50;100.00;102672.44;5017343;28;19933;-76
2021/12/14 01:10:41;;;;;;;;;;;;;;;7.47;100.00;102658.16;5017984;28;19921;-76
2021/12/14 01:13:09;;;;;;;;;;;;;;;7.48;100.00;102653.03;5017599;28;19924;-77
2021/12/14 01:15:49;;;;;;;;;;;;;;;7.51;100.00;102647.13;5017342;28;19917;-76
2021/12/14 01:20:59;;;;;;;;;;;;;;;7.50;100.00;102646.22;5034820;28;20398;-76
2021/12/14 01:23:30;;;;;;;;;;;;;;;7.52;100.00;102643.72;5017286;28;20276;-76
2021/12/14 01:25:59;;;;;;;;;;;;;;;7.50;100.00;102650.53;5017419;28;20010;-75
2021/12/14 01:28:28;;;;;;;;;;;;;;;7.46;100.00;102643.25;5016952;28;19920;-74
2021/12/14 01:31:10;;;;;;;;;;;;;;;7.46;100.00;102638.91;5017014;28;19917;-76
2021/12/14 01:33:38;;;;;;;;;;;;;;;7.48;100.00;102636.41;5017165;28;19921;-76
2021/12/14 01:36:10;;;;;;;;;;;;;;;7.47;100.00;102635.50;5017118;28;19921;-76
2021/12/14 01:38:47;;;;;;;;;;;;;;;7.50;100.00;102642.66;5034976;28;19960;-76
2021/12/14 01:41:13;;;;;;;;;;;;;;;7.46;100.00;102649.38;5037043;28;19942;-76
2021/12/14 01:43:50;;;;;;;;;;;;;;;7.44;100.00;102643.13;5036577;28;19917;-76
2021/12/14 01:46:34;;;;;;;;;;;;;;;7.43;100.00;102657.00;5036662;28;19917;-76
2021/12/14 01:49:05;;;;;;;;;;;;;;;7.43;100.00;102659.63;5035701;28;19913;-75
2021/12/14 01:51:31;;;;;;;;;;;;;;;7.37;100.00;102654.81;5037033;28;19917;-76
2021/12/14 01:53:57;;;;;;;;;;;;;;;7.39;100.00;102654.94;5036060;28;19995;-74
2021/12/14 01:56:24;;;;;;;;;;;;;;;7.40;100.00;102648.91;5036178;28;19923;-76
2021/12/14 01:58:53;;;;;;;;;;;;;;;7.37;100.00;102648.66;5036165;28;19966;-74
2021/12/14 02:01:21;;;;;;;;;;;;;;;7.37;100.00;102646.06;5035875;28;19921;-75
2021/12/14 02:03:55;;;;;;;;;;;;;;;7.35;100.00;102653.78;5035314;28;19917;-76
2021/12/14 02:06:26;;;;;;;;;;;;;;;7.38;100.00;102650.50;5035248;28;19955;-76
2021/12/14 02:09:03;;;;;;;;;;;;;;;7.38;100.00;102653.13;5035383;28;19945;-76
2021/12/14 02:11:36;;;;;;;;;;;;;;;7.33;100.00;102658.00;5036346;28;19942;-75
2021/12/14 02:14:02;;;;;;;;;;;;;;;7.34;100.00;102657.19;5035600;28;19927;-75
2021/12/14 02:16:28;;;;;;;;;;;;;;;7.37;100.00;102654.81;5035583;28;20348;-76
2021/12/14 02:18:57;;;;;;;;;;;;;;;7.36;100.00;102633.72;5019429;28;19927;-75
2021/12/14 02:21:22;;;;;;;;;;;;;;;7.34;100.00;102638.84;5035917;28;19916;-76
2021/12/14 02:23:49;;;;;;;;;;;;;;;7.34;100.00;102628.38;5035538;28;20279;-77
2021/12/14 02:26:19;;;;;;;;;;;;;;;7.34;100.00;102635.31;5035902;28;20642;-76
2021/12/14 02:28:45;;;;;;;;;;;;;;;7.35;100.00;102639.78;5035616;28;19917;-78
2021/12/14 02:31:12;;;;;;;;;;;;;;;7.34;100.00;102632.72;5034901;28;19923;-75
2021/12/14 02:33:39;;;;;;;;;;;;;;;7.33;100.00;102636.13;5035679;28;19913;-77
2021/12/14 02:36:12;;;;;;;;;;;;;;;7.35;100.00;102637.16;5036115;28;19952;-78
2021/12/14 02:38:43;;;;;;;;;;;;;;;7.33;100.00;102636.13;5035289;28;20008;-76
2021/12/14 02:41:08;;;;;;;;;;;;;;;7.26;100.00;102629.50;5036170;28;19917;-76
2021/12/14 02:43:38;;;;;;;;;;;;;;;7.30;100.00;102628.94;5035227;28;19920;-75
2021/12/14 02:46:13;;;;;;;;;;;;;;;7.28;100.00;102621.75;5034873;28;19946;-75
2021/12/14 02:48:41;;;;;;;;;;;;;;;7.33;100.00;102617.78;5035619;28;20003;-76
2021/12/14 02:51:08;;;;;;;;;;;;;;;7.26;100.00;102633.81;5035346;28;20347;-76
2021/12/14 02:53:34;;;;;;;;;;;;;;;7.23;100.00;102628.34;5035725;28;19917;-76
2021/12/14 02:55:59;;;;;;;;;;;;;;;7.25;100.00;102624.13;5035430;28;19943;-77
2021/12/14 02:58:25;;;;;;;;;;;;;;;7.19;100.00;102624.56;5034877;28;19951;-76
2021/12/14 03:00:51;;;;;;;;;;;;;;;7.18;100.00;102594.84;5035453;28;19982;-76
2021/12/14 03:03:17;;;;;;;;;;;;;;;7.18;100.00;102600.06;5035642;28;19921;-75
2021/12/14 03:05:45;;;;;;;;;;;;;;;7.18;100.00;102589.59;5035334;28;20383;-76
2021/12/14 03:08:15;;;;;;;;;;;;;;;7.19;100.00;102608.84;5018865;28;19966;-76
2021/12/14 03:10:55;;;;;;;;;;;;;;;7.18;100.00;102600.06;5035311;28;19952;-76
2021/12/14 03:13:22;;;;;;;;;;;;;;;7.17;100.00;102615.66;5035177;28;19920;-79
2021/12/14 03:15:52;;;;;;;;;;;;;;;7.19;100.00;102624.56;5035421;28;20271;-75
2021/12/14 03:18:22;;;;;;;;;;;;;;;7.16;100.00;102624.31;5035430;28;19912;-76
2021/12/14 03:20:49;;;;;;;;;;;;;;;7.18;100.00;102625.38;5034596;28;19916;-76
2021/12/14 03:23:18;;;;;;;;;;;;;;;7.18;100.00;102631.50;5035387;28;19916;-76
2021/12/14 03:25:46;;;;;;;;;;;;;;;7.22;100.00;102637.91;5034634;28;19917;-78
2021/12/14 03:28:12;;;;;;;;;;;;;;;7.17;100.00;102639.25;5035088;28;19956;-76
2021/12/14 03:30:49;;;;;;;;;;;;;;;7.18;100.00;102638.47;5035268;28;20011;-76
2021/12/14 03:33:18;;;;;;;;;;;;;;;7.18;100.00;102641.09;5035123;28;19952;-75
2021/12/14 03:35:46;;;;;;;;;;;;;;;7.19;100.00;102632.41;5034703;28;19921;-76
2021/12/14 03:38:18;;;;;;;;;;;;;;;7.16;100.00;102633.09;5021005;28;19917;-76
2021/12/14 03:40:52;;;;;;;;;;;;;;;7.15;100.00;102641.75;5015235;28;19991;-76
2021/12/14 03:43:17;;;;;;;;;;;;;;;7.17;100.00;102649.72;5019481;28;19967;-76
2021/12/14 03:45:43;;;;;;;;;;;;;;;7.15;100.00;102654.84;5002392;28;20324;-75
2021/12/14 03:48:10;;;;;;;;;;;;;;;7.15;100.00;102649.63;5018235;28;19959;-76
2021/12/14 03:50:40;;;;;;;;;;;;;;;7.15;100.00;102654.84;5018488;28;20047;-76
2021/12/14 03:53:06;;;;;;;;;;;;;;;7.17;100.00;102661.13;5018385;28;19917;-76
2021/12/14 03:55:37;;;;;;;;;;;;;;;7.18;100.00;102664.66;5017829;28;19920;-75
2021/12/14 03:58:08;;;;;;;;;;;;;;;7.14;100.00;102666.13;5013368;28;20325;-76
2021/12/14 04:00:36;;;;;;;;;;;;;;;7.15;100.00;102665.34;5018318;28;20553;-76
2021/12/14 04:03:05;;;;;;;;;;;;;;;7.18;100.00;102656.81;5017822;28;19924;-75
2021/12/14 04:05:30;;;;;;;;;;;;;;;7.15;100.00;102646.09;5018339;28;19917;-75
2021/12/14 04:07:56;;;;;;;;;;;;;;;7.14;100.00;102641.63;5017522;28;19924;-74
2021/12/14 04:10:23;;;;;;;;;;;;;;;7.18;100.00;102639.38;5017713;28;20278;-76
2021/12/14 04:12:49;;;;;;;;;;;;;;;7.18;100.00;102633.22;5017913;28;19964;-75
2021/12/14 04:15:15;;;;;;;;;;;;;;;7.17;100.00;102645.41;5017944;28;20439;-76
2021/12/14 04:17:40;;;;;;;;;;;;;;;7.13;100.00;102647.66;5017817;28;19917;-76
2021/12/14 04:20:10;;;;;;;;;;;;;;;7.14;100.00;102642.53;5017151;28;20408;-76
2021/12/14 04:22:35;;;;;;;;;;;;;;;7.10;100.00;102645.72;5017647;28;20007;-75
2021/12/14 04:25:03;;;;;;;;;;;;;;;7.14;100.00;102645.16;5018518;28;20010;-75
2021/12/14 04:27:31;;;;;;;;;;;;;;;7.14;100.00;102645.16;5018250;28;19913;-78
2021/12/14 04:29:59;;;;;;;;;;;;;;;7.13;100.00;102650.28;5018029;28;19924;-76
2021/12/14 04:32:24;;;;;;;;;;;;;;;7.11;100.00;102655.38;5018474;28;19913;-78
2021/12/14 04:34:50;;;;;;;;;;;;;;;7.10;100.00;102643.09;5018184;28;19917;-78
2021/12/14 04:37:16;;;;;;;;;;;;;;;7.09;100.00;102645.59;5017846;28;19921;-76
2021/12/14 04:39:46;;;;;;;;;;;;;;;7.07;100.00;102642.88;5018186;28;19986;-77
2021/12/14 04:53:23;;;;;;;;;;;;;;;7.05;100.00;102622.56;5035298;28;19985;-77
2021/12/14 04:55:51;;;;;;;;;;;;;;;7.03;100.00;102618.94;5017460;28;19921;-76
2021/12/14 04:58:26;;;;;;;;;;;;;;;7.03;100.00;102630.31;5016918;28;19917;-75
2021/12/14 05:00:51;;;;;;;;;;;;;;;7.03;100.00;102630.31;5017460;28;20011;-77
2021/12/14 05:03:19;;;;;;;;;;;;;;;7.03;100.00;102625.06;5034992;28;19986;-78
2021/12/14 05:05:48;;;;;;;;;;;;;;;7.04;100.00;102632.16;5017290;28;19921;-79
2021/12/14 05:10:54;;;;;;;;;;;;;;;7.06;100.00;102622.69;5034622;28;19917;-76
2021/12/14 05:13:28;;;;;;;;;;;;;;;7.07;100.00;102616.66;5017274;28;19921;-76
2021/12/14 05:15:53;;;;;;;;;;;;;;;7.07;100.00;102621.91;5017592;28;19924;-76
2021/12/14 05:18:21;;;;;;;;;;;;;;;7.03;100.00;102616.31;5016750;28;19978;-74
2021/12/14 05:20:48;;;;;;;;;;;;;;;7.00;100.00;102620.50;5035372;28;19948;-74
2021/12/14 05:23:21;;;;;;;;;;;;;;;7.04;100.00;102621.66;5017000;28;19921;-76
2021/12/14 05:25:46;;;;;;;;;;;;;;;7.02;100.00;102612.75;5017195;28;19956;-75
2021/12/14 05:28:15;;;;;;;;;;;;;;;7.01;100.00;102617.09;5017413;28;19951;-75
2021/12/14 05:30:41;;;;;;;;;;;;;;;7.01;100.00;102621.44;5017693;28;20357;-75
2021/12/14 05:33:08;;;;;;;;;;;;;;;7.03;100.00;102625.06;5017308;28;19943;-77
2021/12/14 05:35:34;;;;;;;;;;;;;;;7.02;100.00;102623.22;5017488;28;19916;-76
2021/12/14 05:38:03;;;;;;;;;;;;;;;7.04;100.00;102629.53;5017032;28;20276;-76
2021/12/14 05:43:07;;;;;;;;;;;;;;;7.05;100.00;102627.81;5034807;28;19917;-75
2021/12/14 05:45:33;;;;;;;;;;;;;;;7.05;100.00;102631.34;5017045;28;19917;-75
2021/12/14 05:48:02;;;;;;;;;;;;;;;7.07;100.00;102634.06;5016621;28;19943;-75
2021/12/14 05:50:31;;;;;;;;;;;;;;;7.06;100.00;102630.53;5017354;28;20353;-75
2021/12/14 05:52:57;;;;;;;;;;;;;;;7.11;100.00;102639.66;5016998;28;19917;-76
2021/12/14 05:55:24;;;;;;;;;;;;;;;7.07;100.00;102641.94;5017537;28;19917;-76
2021/12/14 05:57:52;;;;;;;;;;;;;;;7.09;100.00;102642.97;5017279;28;19917;-78
2021/12/14 06:00:18;;;;;;;;;;;;;;;7.09;100.00;102654.38;5015120;28;19958;-76
2021/12/14 06:02:44;;;;;;;;;;;;;;;7.08;100.00;102655.16;5017137;28;19921;-77
2021/12/14 06:05:14;;;;;;;;;;;;;;;7.08;100.00;102657.78;5016611;28;19913;-76
2021/12/14 06:07:41;;;;;;;;;;;;;;;7.04;100.00;102652.16;5016868;28;19928;-77
2021/12/14 06:10:07;;;;;;;;;;;;;;;7.06;100.00;102646.25;5017338;28;19938;-78
2021/12/14 06:12:34;;;;;;;;;;;;;;;7.06;100.00;102651.50;5017169;28;19924;-80
2021/12/14 06:15:00;;;;;;;;;;;;;;;7.08;100.00;102649.91;5016556;28;19944;-77
2021/12/14 06:17:34;;;;;;;;;;;;;;;7.06;100.00;102655.84;5016833;28;20282;-76
2021/12/14 06:20:08;;;;;;;;;;;;;;;7.06;100.00;102655.84;5016592;28;19971;-77
2021/12/14 06:22:34;;;;;;;;;;;;;;;7.08;100.00;102649.91;5016756;28;19917;-77
2021/12/14 06:25:03;;;;;;;;;;;;;;;7.11;100.00;102659.72;5016732;28;19971;-77
2021/12/14 06:27:31;;;;;;;;;;;;;;;7.06;100.00;102659.38;5016175;28;20345;-77
2021/12/14 06:30:01;;;;;;;;;;;;;;;7.09;100.00;102651.75;5015618;28;19960;-76
2021/12/14 06:32:34;;;;;;;;;;;;;;;7.09;100.00;102659.59;5015416;28;20353;-79
2021/12/14 06:35:03;;;;;;;;;;;;;;;7.10;100.00;102660.50;5025411;28;20007;-77
2021/12/14 06:40:18;;;;;;;;;;;;;;;7.18;100.00;102665.56;5053529;28;19916;-78
2021/12/14 06:42:47;;;;;;;;;;;;;;;7.21;100.00;102667.53;5035702;28;19931;-77
2021/12/14 06:45:16;;;;;;;;;;;;;;;7.19;100.00;102674.34;5036117;28;19916;-77
2021/12/14 06:47:42;;;;;;;;;;;;;;;7.22;100.00;102673.69;5035684;28;19917;-76
2021/12/14 06:50:10;;;;;;;;;;;;;;;7.19;100.00;102670.03;5036060;28;19916;-78
2021/12/14 06:52:35;;;;;;;;;;;;;;;7.22;100.00;102673.69;5036263;28;20375;-78
2021/12/14 06:55:00;;;;;;;;;;;;;;;7.27;100.00;102677.56;5035476;28;19916;-76
2021/12/14 06:57:28;;;;;;;;;;;;;;;7.28;100.00;102676.78;5034810;28;19917;-77
2021/12/14 06:59:54;;;;;;;;;;;;;;;7.33;100.00;102689.47;5027457;28;20357;-79
2021/12/14 07:02:20;;;;;;;;;;;;;;;7.33;100.00;102688.53;5015540;28;19966;-79
2021/12/14 07:04:48;;;;;;;;;;;;;;;7.39;100.00;102688.09;5015590;28;19917;-79
2021/12/14 07:07:17;;;;;;;;;;;;;;;7.43;100.00;102691.09;5015904;28;19920;-78
2021/12/14 07:09:47;;;;;;;;;;;;;;;7.41;100.00;102692.69;5015803;28;19943;-81
2021/12/14 07:12:15;;;;;;;;;;;;;;;7.40;100.00;102695.19;5015255;28;19920;-78
2021/12/14 07:14:43;;;;;;;;;;;;;;;7.35;100.00;102693.09;5015002;28;20317;-76
2021/12/14 07:17:11;;;;;;;;;;;;;;;7.39;100.00;102689.00;5017197;28;20320;-78
2021/12/14 07:19:39;;;;;;;;;;;;;;;7.40;100.00;102690.84;5018349;28;19971;-76
2021/12/14 07:22:06;;;;;;;;;;;;;;;7.36;100.00;102689.69;5018677;28;19974;-77
2021/12/14 07:24:33;;;;;;;;;;;;;;;7.41;100.00;102681.25;5018980;28;20044;-77
2021/12/14 07:27:19;;;;;;;;;;;;;;;7.48;100.00;102687.09;5017850;28;19963;-78
2021/12/14 07:29:44;;;;;;;;;;;;;;;7.44;100.00;102690.31;5018477;28;19913;-77
2021/12/14 07:32:10;;;;;;;;;;;;;;;7.44;100.00;102692.00;5036707;28;19924;-79
2021/12/14 07:34:35;;;;;;;;;;;;;;;7.42;100.00;102704.97;5019449;28;19951;-78
2021/12/14 07:37:01;;;;;;;;;;;;;;;7.40;100.00;102703.94;5018911;28;19921;-78
2021/12/14 07:39:26;;;;;;;;;;;;;;;7.40;100.00;102710.91;5018719;28;19913;-78
2021/12/14 07:41:54;;;;;;;;;;;;;;;7.40;100.00;102705.66;5018817;28;19917;-77
2021/12/14 07:44:22;;;;;;;;;;;;;;;7.40;100.00;102717.06;5018775;28;19925;-78
2021/12/14 07:46:52;;;;;;;;;;;;;;;7.45;100.00;102720.94;5018258;28;20007;-78
2021/12/14 07:49:18;;;;;;;;;;;;;;;7.43;100.00;102717.28;5018808;28;19928;-77
2021/12/14 07:51:46;;;;;;;;;;;;;;;7.42;100.00;102717.19;5018773;28;19918;-77
2021/12/14 07:54:17;;;;;;;;;;;;;;;7.41;100.00;102718.91;5036658;28;19917;-77
2021/12/14 07:56:50;;;;;;;;;;;;;;;7.44;100.00;102719.13;5017928;28;20276;-77
2021/12/14 07:59:27;;;;;;;;;;;;;;;7.41;100.00;102724.13;5036261;28;19924;-78
2021/12/14 08:02:11;;;;;;;;;;;;;;;7.42;100.00;102723.31;5018657;28;19992;-77
2021/12/14 08:04:37;;;;;;;;;;;;;;;7.49;100.00;102728.25;5018588;28;19926;-75
2021/12/14 08:07:03;;;;;;;;;;;;;;;7.49;100.00;102730.88;5018536;28;19917;-78
2021/12/14 08:09:48;;;;;;;;;;;;;;;7.54;100.00;102729.53;5018545;28;19963;-78
2021/12/14 08:12:36;;;;;;;;;;;;;;;7.53;100.00;102732.94;5030318;28;19917;-78
2021/12/14 08:15:04;;;;;;;;;;;;;;;7.55;100.00;102739.22;5026423;28;20277;-78
2021/12/14 08:17:36;;;;;;;;;;;;;;;7.52;100.00;102741.63;5030923;28;19916;-78
2021/12/14 08:20:03;;;;;;;;;;;;;;;7.54;100.00;102736.50;5038225;28;19920;-77
2021/12/14 08:22:30;;;;;;;;;;;;;;;7.54;100.00;102741.72;5028212;28;19916;-78
2021/12/14 08:24:56;;;;;;;;;;;;;;;7.58;100.00;102745.50;5019033;28;19948;-77
2021/12/14 08:27:28;;;;;;;;;;;;;;;7.58;100.00;102745.50;5018689;28;19921;-78
2021/12/14 08:29:55;;;;;;;;;;;;;;;7.58;100.00;102735.00;5017867;28;19917;-78
2021/12/14 08:32:23;;;;;;;;;;;;;;;7.57;100.00;102748.91;5018701;28;19917;-79
2021/12/14 08:34:50;;;;;;;;;;;;;;;7.58;100.00;102746.41;5018402;28;19971;-78
2021/12/14 08:37:20;;;;;;;;;;;;;;;7.62;100.00;102750.19;5025343;28;20508;-79
2021/12/14 08:39:48;;;;;;;;;;;;;;;7.67;100.00;102756.72;5038568;28;19943;-78
2021/12/14 08:42:32;;;;;;;;;;;;;;;7.67;100.00;102759.34;5038232;28;19916;-79
2021/12/14 08:44:59;;;;;;;;;;;;;;;7.66;100.00;102761.06;5027847;28;19928;-80
2021/12/14 08:47:31;;;;;;;;;;;;;;;7.68;100.00;102761.16;5018189;28;19943;-79
2021/12/14 08:49:58;;;;;;;;;;;;;;;7.61;100.00;102764.09;5018421;28;19960;-79
2021/12/14 08:52:24;;;;;;;;;;;;;;;7.58;100.00;102763.84;5018775;28;19917;-79
2021/12/14 08:54:50;;;;;;;;;;;;;;;7.57;100.00;102769.88;5018198;28;20392;-78
2021/12/14 08:57:18;;;;;;;;;;;;;;;7.60;100.00;102759.63;5033046;28;19921;-79
2021/12/14 08:59:46;;;;;;;;;;;;;;;7.58;100.00;102756.88;5037937;28;19924;-78
2021/12/14 09:02:14;;;;;;;;;;;;;;;7.58;100.00;102763.84;5038354;28;20344;-79
2021/12/14 09:04:49;;;;;;;;;;;;;;;7.61;100.00;102761.47;5038454;28;20395;-78
2021/12/14 09:07:16;;;;;;;;;;;;;;;7.62;100.00;102750.19;5038257;28;19923;-77
2021/12/14 09:09:42;;;;;;;;;;;;;;;7.58;100.00;102751.66;5029755;28;19917;-78
2021/12/14 09:12:07;;;;;;;;;;;;;;;7.56;100.00;102750.63;5018015;28;19924;-79
2021/12/14 09:14:33;;;;;;;;;;;;;;;7.56;100.00;102748.00;5017976;28;20342;-79
2021/12/14 09:17:00;;;;;;;;;;;;;;;7.52;100.00;102752.09;5017655;28;19924;-78
2021/12/14 09:19:39;;;;;;;;;;;;;;;7.62;100.00;102750.19;5017426;28;19924;-79
2021/12/14 09:22:12;;;;;;;;;;;;;;;7.64;100.00;102754.75;5017575;28;19921;-78
2021/12/14 09:24:38;;;;;;;;;;;;;;;7.66;100.00;102750.56;5018282;28;19917;-79
2021/12/14 09:27:09;;;;;;;;;;;;;;;7.65;100.00;102753.97;5016797;28;19917;-79
2021/12/14 09:29:35;;;;;;;;;;;;;;;7.69;100.00;102752.50;5000964;28;20385;-79
2021/12/14 09:32:03;;;;;;;;;;;;;;;7.76;100.00;102754.81;5016024;28;20736;-80
2021/12/14 09:34:29;;;;;;;;;;;;;;;7.73;100.00;102765.06;5016209;28;19924;-79
2021/12/14 09:36:55;;;;;;;;;;;;;;;7.81;100.00;102768.28;5015913;28;19994;-78
2021/12/14 09:39:23;;;;;;;;;;;;;;;7.78;100.00;102763.69;5016169;28;20333;-78
2021/12/14 09:41:53;;;;;;;;;;;;;;;7.82;100.00;102759.63;5015888;28;20369;-79
2021/12/14 09:44:23;;;;;;;;;;;;;;;7.84;100.00;102761.56;5016521;28;20253;-78
2021/12/14 09:46:49;;;;;;;;;;;;;;;7.86;100.00;102762.59;5016016;28;19944;-79
2021/12/14 09:49:15;;;;;;;;;;;;;;;7.86;100.00;102759.06;5016480;28;19932;-78
2021/12/14 09:51:41;;;;;;;;;;;;;;;7.80;100.00;102767.38;5016156;28;20357;-79
2021/12/14 09:54:08;;;;;;;;;;;;;;;7.84;100.00;102768.53;5016245;28;19924;-78
2021/12/14 09:56:41;;;;;;;;;;;;;;;7.91;100.00;102771.75;5016360;28;20265;-79
2021/12/14 09:59:09;;;;;;;;;;;;;;;7.93;100.00;102765.72;5016449;28;19921;-78
2021/12/14 10:01:41;;;;;;;;;;;;;;;7.95;100.00;102769.34;5015664;28;19923;-80
2021/12/14 10:04:09;;;;;;;;;;;;;;;7.96;100.00;102761.59;5016510;28;19967;-78
2021/12/14 10:06:35;;;;;;;;;;;;;;;7.99;100.00;102758.31;5017093;28;20332;-78
2021/12/14 10:09:09;;;;;;;;;;;;;;;8.04;100.00;102760.47;5015708;28;19921;-78
2021/12/14 10:12:02;;;;;;;;;;;;;;;8.07;100.00;102754.56;5015448;28;20168;-78
2021/12/14 10:14:32;;;;;;;;;;;;;;;8.20;100.00;102759.97;5015687;28;20007;-80
2021/12/14 10:16:58;;;;;;;;;;;;;;;8.26;100.00;102760.44;4999288;28;20035;-78
2021/12/14 10:19:26;;;;;;;;;;;;;;;8.21;100.00;102759.13;5013759;28;20385;-78
2021/12/14 10:21:54;;;;;;;;;;;;;;;8.23;100.00;102765.44;5014506;28;20004;-78
2021/12/14 10:24:20;;;;;;;;;;;;;;;8.32;100.00;102769.56;5014168;28;19924;-79
2021/12/14 10:26:52;;;;;;;;;;;;;;;8.27;100.00;102763.94;5015024;28;19994;-78
2021/12/14 10:29:23;;;;;;;;;;;;;;;8.38;100.00;102765.66;5014851;28;19917;-78
2021/12/14 10:31:50;;;;;;;;;;;;;;;8.41;100.00;102772.88;5014837;28;20281;-78
2021/12/14 10:34:21;;;;;;;;;;;;;;;8.50;100.00;102780.53;5015298;28;19967;-79
2021/12/14 10:36:52;;;;;;;;;;;;;;;8.52;100.00;102773.72;5014588;28;19925;-78
2021/12/14 10:39:37;;;;;;;;;;;;;;;8.57;100.00;102782.84;5014604;28;20350;-78
2021/12/14 10:44:50;;;;;;;;;;;;;;;8.50;100.00;102776.22;5041781;28;19924;-79
2021/12/14 10:47:32;;;;;;;;;;;;;;;8.42;100.00;102787.81;5035050;28;19921;-79
2021/12/14 10:50:00;;;;;;;;;;;;;;;8.45;100.00;102782.81;5018899;28;19913;-79
2021/12/14 10:52:27;;;;;;;;;;;;;;;8.49;100.00;102779.63;5016046;28;20272;-79
2021/12/14 10:54:55;;;;;;;;;;;;;;;8.47;100.00;102773.38;5016508;28;19912;-78
2021/12/14 10:57:23;;;;;;;;;;;;;;;8.59;100.00;102775.97;5016134;28;20011;-78
2021/12/14 10:59:51;;;;;;;;;;;;;;;8.62;100.00;102766.66;5026592;28;20514;-80
2021/12/14 11:02:20;;;;;;;;;;;;;;;8.63;100.00;102768.44;5018011;28;19924;-80
2021/12/14 11:04:53;;;;;;;;;;;;;;;8.65;100.00;102765.03;5035512;28;20046;-79
2021/12/14 11:07:22;;;;;;;;;;;;;;;8.72;100.00;102759.44;5036302;28;19928;-80
2021/12/14 11:09:53;;;;;;;;;;;;;;;8.69;100.00;102765.38;5035470;28;20002;-79
2021/12/14 11:12:22;;;;;;;;;;;;;;;8.73;100.00;102769.13;5036147;28;19924;-80
2021/12/14 11:14:49;;;;;;;;;;;;;;;8.73;100.00;102769.13;5053892;28;19916;-78
2021/12/14 11:20:00;;;;;;;;;;;;;;;8.79;100.00;102761.72;5053602;28;19944;-79
2021/12/14 11:22:26;;;;;;;;;;;;;;;8.71;100.00;102762.88;5036242;28;19956;-79
2021/12/14 11:25:00;;;;;;;;;;;;;;;8.62;100.00;102765.72;5035524;28;20021;-79
2021/12/14 11:27:32;;;;;;;;;;;;;;;8.59;100.00;102761.16;5036364;28;20356;-79
2021/12/14 11:30:18;;;;;;;;;;;;;;;8.57;100.00;102765.38;5031364;28;20288;-79
2021/12/14 11:32:44;;;;;;;;;;;;;;;8.51;100.00;102762.28;5035422;28;20002;-78
2021/12/14 11:35:27;;;;;;;;;;;;;;;8.52;100.00;102763.22;5036196;28;19916;-79
2021/12/14 11:37:55;;;;;;;;;;;;;;;8.49;100.00;102763.88;5020870;28;20287;-80
2021/12/14 11:40:23;;;;;;;;;;;;;;;8.43;100.00;102763.38;5016368;28;19924;-80
2021/12/14 11:42:49;;;;;;;;;;;;;;;8.43;100.00;102763.38;5020038;28;19916;-79
2021/12/14 11:45:16;;;;;;;;;;;;;;;8.36;100.00;102761.09;5036165;28;20003;-78
2021/12/14 11:47:54;;;;;;;;;;;;;;;8.48;100.00;102761.16;5035281;28;19924;-78
2021/12/14 11:50:30;;;;;;;;;;;;;;;8.51;100.00;102759.66;5053792;28;20413;-78
2021/12/14 11:53:13;;;;;;;;;;;;;;;8.31;100.00;102758.13;5035276;28;20333;-79
2021/12/14 11:55:38;;;;;;;;;;;;;;;8.33;100.00;102753.91;5035247;28;19917;-80
2021/12/14 11:58:04;;;;;;;;;;;;;;;8.36;100.00;102756.78;5035678;28;19917;-79
2021/12/14 12:00:31;;;;;;;;;;;;;;;8.41;100.00;102758.03;5035565;28;19916;-79
2021/12/14 12:02:57;;;;;;;;;;;;;;;8.42;100.00;102756.31;5037076;28;19916;-79
2021/12/14 12:05:30;;;;;;;;;;;;;;;8.40;100.00;102757.91;5039646;28;19917;-80
2021/12/14 12:10:51;;;;;;;;;;;;;;;8.35;100.00;102754.94;5057257;28;19963;-80
2021/12/14 12:13:17;;;;;;;;;;;;;;;8.39;100.00;102756.06;5028497;28;19983;-80
2021/12/14 12:15:43;;;;;;;;;;;;;;;8.40;100.00;102750.94;5057080;28;19916;-80
2021/12/14 12:18:10;;;;;;;;;;;;;;;8.43;100.00;102745.94;5024601;28;19979;-79
2021/12/14 12:20:38;;;;;;;;;;;;;;;8.41;100.00;102744.00;5019667;28;19917;-80
2021/12/14 12:23:26;;;;;;;;;;;;;;;8.37;100.00;102749.81;5019655;28;19917;-79
2021/12/14 12:26:00;;;;;;;;;;;;;;;8.42;100.00;102744.09;5019806;28;20004;-78
2021/12/14 12:28:29;;;;;;;;;;;;;;;8.38;100.00;102747.28;5019250;28;20407;-79
2021/12/14 12:31:06;;;;;;;;;;;;;;;8.45;100.00;102748.69;5019586;28;19916;-79
2021/12/14 12:33:37;;;;;;;;;;;;;;;8.43;100.00;102739.75;5031079;28;19963;-79
2021/12/14 12:36:23;;;;;;;;;;;;;;;8.46;100.00;102736.50;5039436;28;19999;-78
2021/12/14 12:39:06;;;;;;;;;;;;;;;8.47;100.00;102731.38;5038454;28;19917;-79
2021/12/14 12:41:50;;;;;;;;;;;;;;;8.46;100.00;102736.50;5038592;28;20011;-79
2021/12/14 12:44:18;;;;;;;;;;;;;;;8.52;100.00;102724.72;5038152;28;20359;-80
2021/12/14 12:46:49;;;;;;;;;;;;;;;8.55;100.00;102718.81;5038781;28;19923;-79
2021/12/14 12:49:16;;;;;;;;;;;;;;;8.66;100.00;102717.88;5037631;28;19920;-79
2021/12/14 12:51:48;;;;;;;;;;;;;;;8.70;100.00;102711.13;5038650;28;19924;-78
2021/12/14 12:54:16;;;;;;;;;;;;;;;8.75;100.00;102710.66;5038277;28;19916;-80
2021/12/14 12:56:42;;;;;;;;;;;;;;;8.78;100.00;102705.63;5037937;28;19921;-80
2021/12/14 12:59:09;;;;;;;;;;;;;;;8.79;100.00;102701.28;5036794;28;19973;-79
2021/12/14 13:01:35;;;;;;;;;;;;;;;8.73;100.00;102692.97;5054884;28;19916;-81
2021/12/14 13:04:00;;;;;;;;;;;;;;;8.75;100.00;102694.00;5037593;28;19923;-81
2021/12/14 13:06:25;;;;;;;;;;;;;;;8.77;100.00;102687.13;5038515;28;19917;-81
2021/12/14 13:08:52;;;;;;;;;;;;;;;8.84;100.00;102677.97;5037629;28;20007;-79
2021/12/14 13:11:24;;;;;;;;;;;;;;;8.78;100.00;102692.50;5022171;28;19921;-80
2021/12/14 13:13:58;;;;;;;;;;;;;;;8.82;100.00;102693.63;5037876;28;19916;-81
2021/12/14 13:16:25;;;;;;;;;;;;;;;8.94;100.00;102696.25;5038188;28;19917;-81
2021/12/14 13:18:54;;;;;;;;;;;;;;;8.89;100.00;102695.91;5055499;28;19923;-81